Time;durP1;ratioP1;P1;durP2;ratioP2;P2;SDS_P1;SDS_P2;PMS_P1;PMS_P2;Temp;Humidity;BMP_temperature;BMP_pressure;BME280_temperature;BME280_humidity;BME280_pressure;Samples;Min_cycle;Max_cycle;Signal;HPM_P1;HPM_P2
2024/03/04 00:02:09;;;;;;;;;20.50;17.00;;;;;8.13;67.12;100511.88;5065527;28;75314;-68
2024/03/04 00:04:34;;;;;;;;;20.00;16.75;;;;;8.13;67.04;100509.28;5070859;27;45857;-68
2024/03/04 00:07:01;;;;;;;;;23.00;19.00;;;;;8.13;66.94;100517.09;5069990;27;45552;-68
2024/03/04 00:09:26;;;;;;;;;20.00;16.75;;;;;8.13;66.99;100520.56;5073358;27;45560;-68
2024/03/04 00:11:51;;;;;;;;;16.00;11.25;;;;;8.08;66.72;100526.75;5075507;27;60137;-66
2024/03/04 00:14:16;;;;;;;;;18.00;15.50;;;;;8.02;66.76;100522.53;5069389;28;60087;-68
2024/03/04 00:16:42;;;;;;;;;17.75;15.75;;;;;7.99;66.54;100526.03;5086346;27;64742;-69
2024/03/04 00:19:08;;;;;;;;;22.00;17.00;;;;;7.97;66.66;100527.81;5066438;27;45660;-70
2024/03/04 00:21:33;;;;;;;;;21.00;17.50;;;;;7.93;66.81;100527.91;5059313;27;68437;-68
2024/03/04 00:23:58;;;;;;;;;15.50;12.75;;;;;7.94;67.07;100527.03;5069501;28;45541;-68
2024/03/04 00:26:24;;;;;;;;;20.50;16.00;;;;;7.89;66.89;100526.25;5071253;28;54495;-68
2024/03/04 00:28:49;;;;;;;;;16.00;14.75;;;;;7.87;66.92;100528.88;5065926;27;66124;-68
2024/03/04 00:31:15;;;;;;;;;19.25;15.25;;;;;7.83;66.99;100526.38;5061274;28;46804;-68
2024/03/04 00:33:40;;;;;;;;;20.50;17.50;;;;;7.77;66.92;100525.59;5080149;27;45306;-68
2024/03/04 00:36:06;;;;;;;;;20.00;14.75;;;;;7.73;67.18;100536.94;5071310;27;46213;-68
2024/03/04 00:38:32;;;;;;;;;15.25;14.00;;;;;7.69;67.11;100539.66;5068894;27;45479;-68
2024/03/04 00:40:58;;;;;;;;;16.75;14.25;;;;;7.62;67.26;100551.06;5071332;27;45885;-68
2024/03/04 00:43:23;;;;;;;;;17.50;16.00;;;;;7.57;67.45;100557.19;5052769;28;45980;-68
2024/03/04 00:45:48;;;;;;;;;17.50;15.75;;;;;7.53;67.64;100555.53;5076329;27;45430;-69
2024/03/04 00:48:14;;;;;;;;;18.25;17.25;;;;;7.51;67.87;100559.06;5069612;27;45509;-68
2024/03/04 00:50:39;;;;;;;;;20.00;15.00;;;;;7.50;67.68;100560.78;5067786;27;59250;-69
2024/03/04 00:53:05;;;;;;;;;18.75;14.25;;;;;7.50;67.93;100563.41;5064728;27;65888;-68
2024/03/04 00:55:31;;;;;;;;;22.75;16.00;;;;;7.48;68.08;100562.56;5069330;27;45663;-68
2024/03/04 00:57:57;;;;;;;;;15.75;13.00;;;;;7.43;67.94;100564.38;5074719;27;45623;-67
2024/03/04 01:00:23;;;;;;;;;15.50;10.25;;;;;7.36;67.86;100561.03;5071965;27;47571;-69
2024/03/04 01:02:49;;;;;;;;;12.25;10.00;;;;;7.29;67.88;100563.75;5078549;27;45862;-68
2024/03/04 01:05:14;;;;;;;;;19.50;15.75;;;;;7.24;68.14;100561.22;5072010;28;45428;-68
2024/03/04 01:07:39;;;;;;;;;15.25;13.00;;;;;7.18;68.23;100550.91;5069889;27;45284;-69
2024/03/04 01:10:06;;;;;;;;;14.25;12.50;;;;;7.16;68.31;100553.53;5076737;27;45422;-68
2024/03/04 01:12:32;;;;;;;;;16.75;14.50;;;;;7.12;68.55;100558.81;5070344;27;45816;-68
2024/03/04 01:14:58;;;;;;;;;18.25;14.75;;;;;7.09;68.69;100556.28;5072762;28;45408;-68
2024/03/04 01:17:23;;;;;;;;;16.75;15.25;;;;;7.10;68.91;100552.78;5062270;27;45358;-66
2024/03/04 01:19:50;;;;;;;;;19.25;15.00;;;;;7.08;69.03;100558.00;5063068;28;64389;-67
2024/03/04 01:22:16;;;;;;;;;21.25;16.00;;;;;7.09;68.98;100566.69;5069910;27;46023;-66
2024/03/04 01:24:43;;;;;;;;;28.25;23.25;;;;;7.06;69.49;100562.38;5061154;28;45536;-68
2024/03/04 01:27:10;;;;;;;;;26.00;19.00;;;;;7.07;70.16;100568.47;5072981;27;45478;-68
2024/03/04 01:29:36;;;;;;;;;20.50;18.25;;;;;7.04;69.96;100570.19;5065289;27;47056;-68
2024/03/04 01:32:02;;;;;;;;;24.00;20.25;;;;;7.00;70.08;100558.13;5076060;27;45862;-67
2024/03/04 01:34:27;;;;;;;;;15.00;11.50;;;;;6.97;70.12;100563.38;5064491;28;45447;-67
2024/03/04 01:36:53;;;;;;;;;17.75;14.75;;;;;6.94;69.91;100563.44;5066619;27;67642;-67
2024/03/04 01:39:18;;;;;;;;;17.50;15.00;;;;;6.92;69.93;100561.72;5069220;27;46443;-68
2024/03/04 01:41:44;;;;;;;;;18.25;14.75;;;;;6.91;70.12;100568.69;5066974;27;74593;-68
2024/03/04 01:44:11;;;;;;;;;17.00;14.00;;;;;6.92;70.23;100561.72;5088935;27;67339;-68
2024/03/04 01:46:36;;;;;;;;;18.25;13.50;;;;;6.93;70.24;100563.47;5066736;27;72857;-68
2024/03/04 01:49:01;;;;;;;;;23.75;19.25;;;;;6.93;70.27;100555.66;5075749;27;76339;-68
2024/03/04 01:51:27;;;;;;;;;13.75;13.75;;;;;6.97;70.55;100549.50;5070063;27;45220;-68
2024/03/04 01:53:53;;;;;;;;;14.75;13.50;;;;;6.99;70.37;100550.34;5071784;27;56531;-69
2024/03/04 01:56:19;;;;;;;;;20.25;15.00;;;;;7.00;70.09;100549.47;5068865;28;75146;-68
2024/03/04 01:58:47;;;;;;;;;14.75;13.75;;;;;6.99;70.46;100537.34;5072909;27;73070;-69
2024/03/04 02:01:14;;;;;;;;;14.50;11.50;;;;;7.00;70.63;100533.88;5065425;28;45371;-69
2024/03/04 02:03:39;;;;;;;;;13.25;11.25;;;;;6.98;70.75;100527.81;5078002;27;45386;-69
2024/03/04 02:06:05;;;;;;;;;20.75;12.50;;;;;6.98;70.75;100539.09;5066956;27;65686;-68
2024/03/04 02:08:31;;;;;;;;;15.00;12.75;;;;;6.97;70.84;100542.56;5073161;27;45556;-67
2024/03/04 02:10:57;;;;;;;;;10.00;9.00;;;;;6.98;70.99;100535.63;5061692;28;45252;-69
2024/03/04 02:13:26;;;;;;;;;26.75;19.00;;;;;6.99;71.12;100537.34;5087373;27;56071;-68
2024/03/04 02:15:51;;;;;;;;;17.75;15.50;;;;;6.97;71.28;100528.69;5074761;27;45708;-68
2024/03/04 02:18:20;;;;;;;;;12.50;10.00;;;;;6.97;71.24;100529.53;5052017;28;46175;-68
2024/03/04 02:20:46;;;;;;;;;10.50;9.50;;;;;6.96;71.07;100525.25;5063028;27;45567;-67
2024/03/04 02:23:12;;;;;;;;;13.50;9.75;;;;;6.95;71.25;100531.31;5070500;27;45750;-68
2024/03/04 02:25:57;;;;;;;;;14.00;11.25;;;;;6.97;71.41;100531.31;5066982;27;45638;-68
2024/03/04 02:28:25;;;;;;;;;14.75;9.25;;;;;6.95;71.53;100527.88;5070340;27;45326;-68
2024/03/04 02:30:51;;;;;;;;;14.50;9.00;;;;;6.92;71.47;100520.94;5056012;28;45459;-68
2024/03/04 02:33:19;;;;;;;;;11.25;10.75;;;;;6.91;71.58;100519.25;5068176;27;67150;-68
2024/03/04 02:35:45;;;;;;;;;10.75;8.75;;;;;6.89;71.65;100515.81;5070360;28;45368;-68
2024/03/04 02:38:10;;;;;;;;;9.00;7.00;;;;;6.89;71.78;100525.34;5072916;27;49899;-66
2024/03/04 02:40:36;;;;;;;;;8.00;8.00;;;;;6.91;71.99;100536.63;5076262;28;45222;-68
2024/03/04 02:43:03;;;;;;;;;14.00;9.25;;;;;6.92;71.82;100540.91;5070359;27;45382;-68
2024/03/04 02:45:29;;;;;;;;;12.50;9.00;;;;;6.90;72.30;100540.94;5078464;27;45517;-68
2024/03/04 02:47:54;;;;;;;;;11.00;8.00;;;;;6.92;72.51;100548.72;5071917;27;45488;-68
2024/03/04 02:50:20;;;;;;;;;10.25;10.00;;;;;6.91;72.22;100537.47;5073165;27;73340;-69
2024/03/04 02:52:45;;;;;;;;;11.25;9.25;;;;;6.94;72.58;100550.44;5072188;27;64687;-68
2024/03/04 02:55:10;;;;;;;;;16.00;10.00;;;;;6.95;72.58;100551.28;5078876;27;45489;-68
2024/03/04 02:57:36;;;;;;;;;11.00;9.00;;;;;6.94;72.68;100547.81;5075190;27;71800;-69
2024/03/04 03:00:01;;;;;;;;;14.00;10.00;;;;;6.95;72.67;100554.72;5064011;27;72553;-68
2024/03/04 03:02:27;;;;;;;;;14.50;9.75;;;;;6.94;72.60;100563.44;5074930;27;45439;-69
2024/03/04 03:04:52;;;;;;;;;13.50;8.25;;;;;6.88;72.78;100560.91;5074454;27;68537;-69
2024/03/04 03:07:18;;;;;;;;;10.75;8.00;;;;;6.88;72.91;100573.91;5075181;27;59471;-69
2024/03/04 03:09:43;;;;;;;;;13.00;8.50;;;;;6.87;72.83;100572.22;5077068;27;64275;-69
2024/03/04 03:12:10;;;;;;;;;10.50;8.75;;;;;6.85;73.06;100571.34;5073157;27;45567;-69
2024/03/04 03:14:36;;;;;;;;;9.00;7.00;;;;;6.88;73.07;100581.72;5062529;28;45472;-69
2024/03/04 03:17:02;;;;;;;;;4.75;4.00;;;;;6.86;72.96;100572.22;5073004;27;47920;-70
2024/03/04 03:19:28;;;;;;;;;11.75;9.25;;;;;6.86;73.30;100572.22;5070860;27;45445;-70
2024/03/04 03:21:55;;;;;;;;;8.50;8.00;;;;;6.88;73.45;100578.28;5093283;27;45505;-70
2024/03/04 03:24:22;;;;;;;;;9.00;8.00;;;;;6.92;73.64;100583.38;5079893;27;45346;-69
2024/03/04 03:26:48;;;;;;;;;11.25;9.75;;;;;6.95;74.06;100579.91;5086467;27;45511;-69
2024/03/04 03:29:14;;;;;;;;;11.00;6.50;;;;;6.93;74.50;100571.25;5088275;27;45331;-69
2024/03/04 03:31:39;;;;;;;;;10.00;8.00;;;;;6.95;74.35;100574.69;5062845;28;45389;-69
2024/03/04 03:34:05;;;;;;;;;12.75;9.00;;;;;6.97;74.12;100576.38;5073496;27;45522;-69
2024/03/04 03:36:30;;;;;;;;;11.25;9.00;;;;;6.98;74.07;100578.09;5069552;27;47546;-69
2024/03/04 03:38:56;;;;;;;;;9.25;8.25;;;;;6.97;74.01;100573.78;5062236;27;67026;-70
2024/03/04 03:41:21;;;;;;;;;10.25;5.75;;;;;6.98;73.88;100577.25;5078324;27;45467;-68
2024/03/04 03:43:47;;;;;;;;;10.75;7.75;;;;;7.01;74.26;100579.78;5072109;27;59770;-69
2024/03/04 03:46:12;;;;;;;;;8.00;7.00;;;;;7.01;74.07;100577.19;5062319;27;45394;-68
2024/03/04 03:48:37;;;;;;;;;7.75;7.75;;;;;6.97;73.71;100578.13;5073407;27;72965;-68
2024/03/04 03:51:03;;;;;;;;;11.25;8.25;;;;;6.99;73.83;100581.56;5064204;27;63507;-69
2024/03/04 03:53:28;;;;;;;;;8.00;4.75;;;;;6.96;74.15;100577.28;5071258;27;45434;-69
2024/03/04 03:55:53;;;;;;;;;11.50;7.00;;;;;6.95;73.95;100575.53;5061120;28;74039;-69
2024/03/04 03:58:18;;;;;;;;;7.00;7.00;;;;;6.91;74.05;100581.69;5066898;27;71472;-69
2024/03/04 04:00:44;;;;;;;;;10.50;5.50;;;;;6.88;73.84;100580.88;5067617;27;54102;-68
2024/03/04 04:03:10;;;;;;;;;4.50;2.00;;;;;6.86;74.38;100572.22;5054942;28;45392;-70
2024/03/04 04:05:35;;;;;;;;;9.75;7.25;;;;;6.90;74.44;100584.31;5073509;28;45467;-69
2024/03/04 04:08:01;;;;;;;;;8.50;8.00;;;;;6.91;74.63;100578.22;5073931;27;64576;-69
2024/03/04 04:10:26;;;;;;;;;7.25;5.50;;;;;6.91;74.67;100580.84;5066782;27;62940;-68
2024/03/04 04:12:51;;;;;;;;;9.75;8.00;;;;;6.89;74.25;100580.84;5069615;27;45466;-69
2024/03/04 04:15:18;;;;;;;;;9.00;5.25;;;;;6.91;74.39;100583.44;5078084;27;46417;-69
2024/03/04 04:17:44;;;;;;;;;8.75;8.75;;;;;6.89;74.67;100580.84;5073446;27;45899;-69
2024/03/04 04:20:11;;;;;;;;;10.75;6.50;;;;;6.91;74.67;100578.22;5062893;27;45316;-69
2024/03/04 04:22:36;;;;;;;;;8.00;5.00;;;;;6.91;74.26;100581.69;5074189;27;45564;-69
2024/03/04 04:25:01;;;;;;;;;7.00;5.25;;;;;6.92;74.79;100574.72;5070461;27;51996;-69
2024/03/04 04:27:27;;;;;;;;;8.25;7.50;;;;;6.92;74.82;100579.94;5049022;28;45619;-69
2024/03/04 04:29:52;;;;;;;;;6.75;3.25;;;;;6.92;74.51;100591.19;5067429;27;45425;-69
2024/03/04 04:32:17;;;;;;;;;10.75;7.50;;;;;6.93;74.67;100602.47;5067667;27;65875;-68
2024/03/04 04:34:43;;;;;;;;;6.00;3.50;;;;;6.90;74.53;100600.75;5071322;27;45449;-68
2024/03/04 04:37:11;;;;;;;;;9.00;6.50;;;;;6.85;74.41;100618.16;5071613;27;45608;-69
2024/03/04 04:39:38;;;;;;;;;6.00;5.00;;;;;6.73;74.65;100600.13;5072811;27;45466;-69
2024/03/04 04:42:03;;;;;;;;;5.00;5.00;;;;;6.73;75.02;100614.00;5072702;27;45357;-69
2024/03/04 04:44:28;;;;;;;;;12.25;7.25;;;;;6.71;75.21;100614.91;5080081;27;45307;-69
2024/03/04 04:46:54;;;;;;;;;8.50;6.50;;;;;6.69;75.01;100619.25;5073929;27;68346;-69
2024/03/04 04:49:19;;;;;;;;;9.00;8.00;;;;;6.65;75.01;100626.25;5074959;27;45370;-69
2024/03/04 04:51:45;;;;;;;;;8.00;4.75;;;;;6.58;75.11;100611.59;5058286;28;45510;-69
2024/03/04 04:54:12;;;;;;;;;12.25;8.00;;;;;6.60;75.21;100620.22;5070924;27;59330;-69
2024/03/04 04:56:37;;;;;;;;;9.25;8.00;;;;;6.60;75.45;100621.09;5062700;27;45863;-69
2024/03/04 04:59:03;;;;;;;;;10.75;8.00;;;;;6.61;75.50;100630.63;5074621;27;45858;-69
2024/03/04 05:01:29;;;;;;;;;13.00;9.00;;;;;6.63;75.60;100638.41;5082725;27;55241;-68
2024/03/04 05:03:54;;;;;;;;;8.00;6.75;;;;;6.60;75.46;100634.09;5044265;28;47200;-68
2024/03/04 05:06:20;;;;;;;;;9.50;8.00;;;;;6.56;75.41;100632.41;5072084;27;45427;-68
2024/03/04 05:08:48;;;;;;;;;12.00;8.00;;;;;6.55;75.51;100633.31;5066119;27;45311;-70
2024/03/04 05:11:15;;;;;;;;;7.25;7.00;;;;;6.55;75.62;100637.63;5077619;27;71100;-70
2024/03/04 05:13:40;;;;;;;;;7.25;7.00;;;;;6.58;75.80;100640.19;5080550;27;45441;-68
2024/03/04 05:16:06;;;;;;;;;7.50;7.00;;;;;6.58;75.95;100643.66;5047748;28;45337;-70
2024/03/04 05:18:31;;;;;;;;;8.50;8.50;;;;;6.58;75.99;100643.66;5067563;27;45375;-68
2024/03/04 05:20:57;;;;;;;;;7.50;6.00;;;;;6.57;76.08;100641.06;5076087;27;45220;-69
2024/03/04 05:23:23;;;;;;;;;10.50;9.00;;;;;6.59;76.00;100640.19;5070200;28;46729;-69
2024/03/04 05:25:48;;;;;;;;;11.75;8.00;;;;;6.56;75.99;100642.81;5071579;27;45835;-69
2024/03/04 05:28:14;;;;;;;;;11.75;8.75;;;;;6.58;76.12;100641.06;5067530;27;45826;-69
2024/03/04 05:30:40;;;;;;;;;9.25;7.00;;;;;6.59;76.25;100647.13;5049577;28;45475;-69
2024/03/04 05:33:05;;;;;;;;;12.00;8.00;;;;;6.58;76.09;100648.00;5062412;27;45465;-69
2024/03/04 05:35:31;;;;;;;;;14.25;9.25;;;;;6.58;75.99;100645.41;5070626;28;45419;-68
2024/03/04 05:37:57;;;;;;;;;8.25;7.00;;;;;6.59;75.92;100657.53;5074651;27;45540;-69
2024/03/04 05:40:22;;;;;;;;;11.25;9.75;;;;;6.55;75.91;100640.22;5083700;27;46964;-69
2024/03/04 05:42:47;;;;;;;;;10.75;9.00;;;;;6.52;75.97;100635.94;5065471;27;45830;-70
2024/03/04 05:45:13;;;;;;;;;9.75;8.00;;;;;6.53;76.20;100642.00;5065065;28;45391;-69
2024/03/04 05:47:38;;;;;;;;;8.75;7.00;;;;;6.52;76.47;100642.88;5073360;28;51133;-69
2024/03/04 05:50:05;;;;;;;;;7.25;6.25;;;;;6.53;76.27;100648.03;5058264;28;45590;-70
2024/03/04 05:52:30;;;;;;;;;7.25;7.00;;;;;6.52;76.43;100643.75;5071871;28;45417;-69
2024/03/04 05:54:56;;;;;;;;;7.00;6.00;;;;;6.54;76.47;100646.31;5069372;27;45457;-69
2024/03/04 05:57:21;;;;;;;;;10.00;7.75;;;;;6.55;76.31;100645.44;5073641;27;55739;-70
2024/03/04 05:59:46;;;;;;;;;10.00;5.75;;;;;6.53;76.27;100647.19;5054112;28;73483;-69
2024/03/04 06:02:12;;;;;;;;;10.25;5.75;;;;;6.56;76.23;100647.16;5065405;28;69462;-69
2024/03/04 06:04:37;;;;;;;;;7.00;6.00;;;;;6.54;76.32;100643.72;5072305;27;70431;-70
2024/03/04 06:07:03;;;;;;;;;9.25;7.00;;;;;6.51;76.11;100639.41;5071266;27;67886;-70
2024/03/04 06:09:28;;;;;;;;;8.00;7.00;;;;;6.55;76.04;100654.13;5077470;28;45249;-70
2024/03/04 06:11:53;;;;;;;;;7.25;6.50;;;;;6.52;76.19;100656.75;5069389;28;64046;-69
2024/03/04 06:14:19;;;;;;;;;9.75;8.00;;;;;6.52;76.20;100654.13;5077484;27;71486;-70
2024/03/04 06:16:47;;;;;;;;;12.25;9.00;;;;;6.51;76.26;100647.22;5074385;27;51903;-71
2024/03/04 06:19:13;;;;;;;;;11.00;9.75;;;;;6.52;76.27;100656.75;5065709;27;45480;-69
2024/03/04 06:21:38;;;;;;;;;10.25;9.00;;;;;6.50;76.15;100653.31;5062268;27;45434;-72
2024/03/04 06:24:04;;;;;;;;;15.25;15.00;;;;;6.48;76.12;100652.47;5059986;28;45467;-68
2024/03/04 06:26:29;;;;;;;;;17.50;11.00;;;;;6.49;76.46;100663.72;5061444;28;45364;-67
2024/03/04 06:28:54;;;;;;;;;11.00;7.75;;;;;6.47;76.41;100655.94;5079221;27;45320;-64
2024/03/04 06:31:20;;;;;;;;;11.25;9.00;;;;;6.46;76.62;100656.78;5062236;28;67009;-66
2024/03/04 06:33:45;;;;;;;;;11.00;8.00;;;;;6.44;76.55;100656.81;5068123;28;73139;-67
2024/03/04 06:36:10;;;;;;;;;14.25;10.75;;;;;6.49;76.73;100669.75;5067311;28;69357;-70
2024/03/04 06:38:36;;;;;;;;;13.50;12.75;;;;;6.52;76.53;100674.09;5054525;28;71866;-68
2024/03/04 06:41:05;;;;;;;;;18.75;14.00;;;;;6.53;76.62;100674.03;5092415;27;46255;-69
2024/03/04 06:43:31;;;;;;;;;19.00;12.50;;;;;6.49;76.41;100669.75;5063740;28;45979;-71
2024/03/04 06:45:57;;;;;;;;;16.25;12.75;;;;;6.45;76.43;100655.09;5055288;28;45511;-66
2024/03/04 06:48:22;;;;;;;;;20.75;14.75;;;;;6.46;76.54;100656.78;5078865;27;45468;-66
2024/03/04 06:50:48;;;;;;;;;18.50;12.25;;;;;6.50;76.63;100655.00;5067669;27;73569;-67
2024/03/04 06:53:13;;;;;;;;;14.50;10.50;;;;;6.50;76.75;100661.09;5067981;28;45376;-66
2024/03/04 06:55:38;;;;;;;;;14.25;11.50;;;;;6.54;76.59;100665.38;5071704;27;63819;-65
2024/03/04 06:58:04;;;;;;;;;16.00;13.75;;;;;6.58;76.71;100669.66;5071292;27;73133;-65
2024/03/04 07:00:29;;;;;;;;;33.25;27.50;;;;;6.63;76.64;100672.22;5073210;27;75598;-65
2024/03/04 07:02:55;;;;;;;;;34.75;23.00;;;;;6.67;76.60;100673.03;5060628;28;45289;-67
2024/03/04 07:05:20;;;;;;;;;19.00;16.00;;;;;6.69;76.54;100671.28;5060249;27;68220;-69
2024/03/04 07:07:45;;;;;;;;;18.75;14.25;;;;;6.71;76.45;100677.31;5067546;27;45521;-65
2024/03/04 07:10:11;;;;;;;;;19.75;15.25;;;;;6.73;76.38;100680.75;5067177;28;73888;-65
2024/03/04 07:12:36;;;;;;;;;16.50;15.00;;;;;6.74;76.45;100678.13;5067792;27;45320;-68
2024/03/04 07:15:06;;;;;;;;;21.75;17.50;;;;;6.78;76.54;100681.56;5076190;27;45435;-66
2024/03/04 07:17:32;;;;;;;;;16.25;14.75;;;;;6.79;76.49;100689.34;5075352;27;45280;-71
2024/03/04 07:19:57;;;;;;;;;26.00;18.75;;;;;6.83;76.68;100693.66;5060950;27;65699;-72
2024/03/04 07:22:22;;;;;;;;;20.75;14.50;;;;;6.87;76.45;100694.47;5065799;27;46860;-66
2024/03/04 07:24:48;;;;;;;;;21.25;19.25;;;;;6.91;76.01;100697.91;5064665;27;68387;-68
2024/03/04 07:27:14;;;;;;;;;19.25;16.25;;;;;6.87;76.66;100694.47;5055774;27;75262;-64
2024/03/04 07:29:40;;;;;;;;;21.25;14.75;;;;;6.87;76.24;100691.00;5063016;28;46205;-63
2024/03/04 07:32:05;;;;;;;;;22.25;16.25;;;;;6.86;76.02;100703.16;5063611;28;45158;-64
2024/03/04 07:34:31;;;;;;;;;21.75;17.00;;;;;6.88;76.00;100701.38;5061859;28;45603;-64
2024/03/04 07:36:57;;;;;;;;;22.50;19.50;;;;;6.87;76.12;100691.00;5067577;27;72410;-65
2024/03/04 07:39:23;;;;;;;;;25.25;20.00;;;;;6.89;76.24;100702.22;5071954;27;46722;-64
2024/03/04 07:41:49;;;;;;;;;19.25;15.25;;;;;6.92;76.07;100708.25;5085782;27;45225;-63
2024/03/04 07:44:16;;;;;;;;;21.00;17.25;;;;;6.91;75.94;100703.09;5063920;27;45477;-66
2024/03/04 07:46:42;;;;;;;;;18.00;16.75;;;;;6.94;75.94;100708.25;5075057;27;47161;-65
2024/03/04 07:49:07;;;;;;;;;26.25;20.25;;;;;6.95;75.99;100699.56;5065978;28;45603;-60
2024/03/04 07:51:32;;;;;;;;;22.50;18.25;;;;;6.98;76.09;100707.34;5067213;27;72561;-63
2024/03/04 07:53:58;;;;;;;;;24.75;20.75;;;;;7.00;76.26;100706.44;5069744;27;69314;-62
2024/03/04 07:56:23;;;;;;;;;19.75;16.75;;;;;7.06;76.34;100708.09;5060372;27;72128;-63
2024/03/04 07:58:48;;;;;;;;;20.00;19.00;;;;;7.13;76.34;100714.06;5071228;27;75540;-64
2024/03/04 08:01:13;;;;;;;;;27.25;21.75;;;;;7.16;76.27;100717.50;5072019;28;72178;-63
2024/03/04 08:03:39;;;;;;;;;27.50;23.25;;;;;7.21;76.51;100717.44;5069583;28;61214;-65
2024/03/04 08:06:05;;;;;;;;;22.75;16.25;;;;;7.28;76.42;100723.41;5073674;28;74178;-64
2024/03/04 08:08:31;;;;;;;;;20.00;19.50;;;;;7.37;76.58;100728.50;5074721;27;46676;-65
2024/03/04 08:10:57;;;;;;;;;22.00;20.25;;;;;7.42;76.40;100726.72;5066883;28;45368;-66
2024/03/04 08:13:22;;;;;;;;;22.75;19.25;;;;;7.49;76.28;100724.84;5059353;28;45289;-66
2024/03/04 08:15:48;;;;;;;;;22.50;19.25;;;;;7.56;76.55;100727.38;5072244;28;45230;-65
2024/03/04 08:18:14;;;;;;;;;26.00;18.25;;;;;7.63;76.14;100728.13;5058879;28;45950;-65
2024/03/04 08:20:40;;;;;;;;;21.50;19.25;;;;;7.70;76.17;100723.69;5068507;28;45438;-64
2024/03/04 08:23:06;;;;;;;;;25.75;21.00;;;;;7.76;75.78;100724.44;5070840;28;45863;-64
2024/03/04 08:25:31;;;;;;;;;21.50;20.00;;;;;7.83;75.87;100721.78;5067748;28;45413;-65
2024/03/04 08:27:57;;;;;;;;;27.25;21.00;;;;;7.92;75.84;100725.06;5064097;27;46443;-64
2024/03/04 08:30:22;;;;;;;;;23.00;20.75;;;;;8.01;75.38;100724.06;5059282;28;45404;-74
2024/03/04 08:32:50;;;;;;;;;25.50;21.00;;;;;8.34;75.72;100727.84;5064649;27;65390;-73
2024/03/04 08:35:15;;;;;;;;;24.00;19.25;;;;;8.60;74.95;100725.66;5064851;28;45369;-70
2024/03/04 08:37:42;;;;;;;;;26.50;23.00;;;;;8.78;73.93;100724.44;5075801;27;46481;-73
2024/03/04 08:40:08;;;;;;;;;25.25;19.75;;;;;8.84;73.21;100724.34;5063009;28;45214;-73
2024/03/04 08:42:34;;;;;;;;;25.25;18.50;;;;;8.83;72.95;100722.59;5074147;27;45181;-73
2024/03/04 08:44:59;;;;;;;;;22.75;20.00;;;;;8.83;73.04;100713.03;5059799;28;45714;-73
2024/03/04 08:47:25;;;;;;;;;77.75;57.00;;;;;8.86;72.50;100723.41;5079297;27;45813;-74
2024/03/04 08:49:50;;;;;;;;;48.00;34.75;;;;;8.86;72.58;100718.19;5078494;27;45411;-73
2024/03/04 08:52:16;;;;;;;;;28.50;20.00;;;;;8.91;72.04;100718.09;5062275;28;45277;-72
2024/03/04 08:54:41;;;;;;;;;19.75;18.25;;;;;8.92;71.78;100717.19;5059885;28;66196;-68
2024/03/04 08:57:07;;;;;;;;;19.00;17.50;;;;;8.93;71.75;100717.16;5063970;27;46186;-64
2024/03/04 08:59:33;;;;;;;;;16.25;16.25;;;;;8.95;71.87;100711.91;5065201;28;46010;-67
2024/03/04 09:01:58;;;;;;;;;19.25;15.75;;;;;8.99;71.39;100713.56;5058277;28;68327;-68
2024/03/04 09:04:23;;;;;;;;;22.50;20.00;;;;;9.10;71.47;100710.72;5059396;28;68620;-68
2024/03/04 09:06:49;;;;;;;;;25.50;17.00;;;;;9.79;72.26;100710.91;5060674;28;45344;-68
2024/03/04 09:09:14;;;;;;;;;19.25;16.00;;;;;10.44;70.40;100707.56;5061045;28;45466;-68
2024/03/04 09:11:40;;;;;;;;;20.50;17.75;;;;;10.63;68.75;100711.38;5058671;28;59999;-67
2024/03/04 09:14:05;;;;;;;;;23.75;19.50;;;;;10.64;68.01;100710.50;5072198;28;73283;-67
2024/03/04 09:16:30;;;;;;;;;15.00;12.75;;;;;10.54;67.33;100710.81;5066212;28;46554;-68
2024/03/04 09:18:56;;;;;;;;;16.50;15.25;;;;;10.46;67.12;100710.97;5066669;28;62959;-68
2024/03/04 09:21:24;;;;;;;;;14.00;13.00;;;;;10.39;66.91;100704.19;5074990;27;57938;-68
2024/03/04 09:23:50;;;;;;;;;12.75;12.00;;;;;10.34;67.16;100719.16;5063179;28;45533;-68
2024/03/04 09:26:17;;;;;;;;;20.75;12.75;;;;;10.26;66.98;100714.97;5074926;28;45453;-69
2024/03/04 09:28:52;;;;;;;;;14.50;12.75;;;;;10.28;66.90;100709.69;5063458;28;45902;-68
2024/03/04 09:31:17;;;;;;;;;15.75;13.50;;;;;10.31;66.67;100711.38;5074519;28;45382;-68
2024/03/04 09:33:46;;;;;;;;;17.50;13.25;;;;;10.32;66.21;100708.72;5074667;27;45534;-68
2024/03/04 09:36:12;;;;;;;;;11.75;11.50;;;;;10.37;66.11;100719.94;5073596;28;48175;-68
2024/03/04 09:38:38;;;;;;;;;11.75;9.25;;;;;10.38;66.14;100715.59;5076096;27;45350;-68
2024/03/04 09:41:03;;;;;;;;;12.00;9.75;;;;;10.44;65.85;100718.03;5073297;28;45853;-68
2024/03/04 09:43:29;;;;;;;;;9.00;7.00;;;;;10.45;65.58;100714.53;5053218;28;45514;-67
2024/03/04 09:45:56;;;;;;;;;11.50;10.00;;;;;10.45;65.06;100715.38;5068952;27;46932;-67
2024/03/04 09:48:23;;;;;;;;;7.50;6.50;;;;;10.50;65.14;100710.03;5067434;27;45963;-68
2024/03/04 09:50:51;;;;;;;;;9.00;5.25;;;;;10.58;64.53;100717.66;5072836;28;45318;-68
2024/03/04 09:53:18;;;;;;;;;7.25;4.00;;;;;10.63;64.68;100713.16;5070331;27;45452;-68
2024/03/04 09:55:44;;;;;;;;;4.00;4.00;;;;;10.76;63.95;100714.50;5067761;28;45530;-69
2024/03/04 09:58:10;;;;;;;;;5.25;2.75;;;;;10.82;63.43;100716.97;5070681;28;45490;-68
2024/03/04 10:00:37;;;;;;;;;4.00;3.50;;;;;10.89;63.91;100712.44;5063602;28;45339;-68
2024/03/04 10:03:03;;;;;;;;;5.50;2.75;;;;;10.94;62.66;100715.78;5066415;27;45338;-68
2024/03/04 10:05:29;;;;;;;;;3.50;3.00;;;;;11.02;62.04;100710.31;5078567;28;46203;-68
2024/03/04 10:07:55;;;;;;;;;7.00;3.50;;;;;11.09;62.10;100703.13;5069510;28;71255;-68
2024/03/04 10:10:20;;;;;;;;;6.25;4.00;;;;;11.15;61.71;100710.78;5076382;27;47631;-68
2024/03/04 10:12:46;;;;;;;;;7.75;3.25;;;;;11.21;61.52;100705.38;5070852;27;70773;-68
2024/03/04 10:15:12;;;;;;;;;5.75;3.00;;;;;11.29;61.16;100703.38;5064008;27;45311;-68
2024/03/04 10:17:38;;;;;;;;;6.00;4.00;;;;;11.40;61.55;100705.66;5080480;27;45637;-68
2024/03/04 10:20:05;;;;;;;;;4.75;4.00;;;;;11.48;61.21;100710.69;5067249;27;45423;-67
2024/03/04 10:22:34;;;;;;;;;4.00;2.25;;;;;11.58;61.09;100712.97;5068225;28;46309;-67
2024/03/04 10:25:04;;;;;;;;;3.75;3.50;;;;;11.69;60.30;100706.53;5079709;27;46178;-67
2024/03/04 10:27:30;;;;;;;;;2.00;2.00;;;;;11.77;60.34;100707.13;5070000;27;45395;-67
2024/03/04 10:30:13;;;;;;;;;6.50;2.00;;;;;11.84;59.66;100705.16;5068009;27;45729;-68
2024/03/04 10:32:44;;;;;;;;;2.00;1.00;;;;;11.92;59.24;100697.94;5066922;27;45548;-67
2024/03/04 10:35:09;;;;;;;;;3.00;2.50;;;;;12.01;58.91;100700.25;5078237;28;46079;-68
2024/03/04 10:37:35;;;;;;;;;2.75;1.50;;;;;12.07;58.65;100705.28;5073468;27;70718;-67
2024/03/04 10:40:00;;;;;;;;;5.00;1.00;;;;;12.13;58.10;100694.59;5068433;27;45328;-68
2024/03/04 10:42:26;;;;;;;;;69.25;52.75;;;;;12.21;58.05;100701.34;5080837;28;45259;-67
2024/03/04 10:44:54;;;;;;;;;4.25;3.25;;;;;12.24;57.60;100701.25;5063869;28;45545;-67
2024/03/04 10:47:23;;;;;;;;;3.00;1.00;;;;;12.25;57.09;100693.34;5068962;27;45555;-68
2024/03/04 10:49:52;;;;;;;;;0.00;0.00;;;;;12.29;56.88;100694.94;5076140;27;45497;-68
2024/03/04 10:52:18;;;;;;;;;1.75;1.75;;;;;12.29;56.55;100694.09;5065924;27;45319;-67
2024/03/04 10:54:44;;;;;;;;;2.25;2.00;;;;;12.29;55.89;100694.09;5072432;27;46733;-68
2024/03/04 10:57:26;;;;;;;;;5.00;2.00;;;;;12.27;56.69;100685.38;5067279;28;45640;-67
2024/03/04 10:59:53;;;;;;;;;3.75;3.25;;;;;12.26;56.04;100681.06;5068995;27;45410;-68
2024/03/04 11:02:20;;;;;;;;;4.50;3.00;;;;;12.26;56.11;100675.81;5075925;27;45420;-67
2024/03/04 11:04:47;;;;;;;;;5.00;2.75;;;;;12.29;56.29;100684.44;5079211;27;47026;-67
2024/03/04 11:07:15;;;;;;;;;5.25;3.00;;;;;12.31;56.30;100674.72;5081480;27;45861;-68
2024/03/04 11:09:44;;;;;;;;;2.50;2.50;;;;;12.36;56.34;100674.59;5075233;27;45317;-68
2024/03/04 11:12:09;;;;;;;;;8.00;4.00;;;;;12.38;55.81;100666.63;5075804;27;45577;-68
2024/03/04 11:14:39;;;;;;;;;5.00;3.00;;;;;12.45;56.13;100666.38;5066966;28;72828;-68
2024/03/04 11:17:19;;;;;;;;;0.25;0.00;;;;;12.49;55.56;100662.72;5085499;27;45407;-68